sensor_id;sensor_type;location;lat;lon;timestamp;pressure;altitude;pressure_sealevel;temperature;humidity
20860;BME280;10590;48.154;11.514;2023-03-22T00:01:52;95558.22;;;9.37;64.70
20860;BME280;10590;48.154;11.514;2023-03-22T00:06:53;95550.78;;;9.56;64.05
20860;BME280;10590;48.154;11.514;2023-03-22T00:11:56;95550.00;;;9.55;64.36
20860;BME280;10590;48.154;11.514;2023-03-22T00:16:58;95547.88;;;9.35;65.04
20860;BME280;10590;48.154;11.514;2023-03-22T00:21:59;95537.50;;;9.25;65.42
20860;BME280;10590;48.154;11.514;2023-03-22T00:27:04;95535.63;;;9.25;65.46
20860;BME280;10590;48.154;11.514;2023-03-22T00:32:06;95527.94;;;9.24;65.40
20860;BME280;10590;48.154;11.514;2023-03-22T00:37:07;95518.06;;;9.16;65.31
20860;BME280;10590;48.154;11.514;2023-03-22T00:42:10;95516.25;;;9.42;64.97
20860;BME280;10590;48.154;11.514;2023-03-22T00:47:12;95515.31;;;9.47;65.14
20860;BME280;10590;48.154;11.514;2023-03-22T00:52:14;95509.91;;;9.61;64.43
20860;BME280;10590;48.154;11.514;2023-03-22T00:57:17;95513.81;;;9.54;64.82
20860;BME280;10590;48.154;11.514;2023-03-22T01:02:19;95510.81;;;9.56;64.25
20860;BME280;10590;48.154;11.514;2023-03-22T01:07:29;95509.06;;;9.51;63.86
20860;BME280;10590;48.154;11.514;2023-03-22T01:12:32;95511.47;;;9.62;63.96
20860;BME280;10590;48.154;11.514;2023-03-22T01:17:33;95516.31;;;9.60;63.88
20860;BME280;10590;48.154;11.514;2023-03-22T01:22:35;95509.81;;;9.43;64.22
20860;BME280;10590;48.154;11.514;2023-03-22T01:27:38;95499.31;;;9.38;64.02
20860;BME280;10590;48.154;11.514;2023-03-22T01:32:39;95492.88;;;9.31;64.61
20860;BME280;10590;48.154;11.514;2023-03-22T01:37:41;95494.13;;;9.33;63.84
20860;BME280;10590;48.154;11.514;2023-03-22T01:42:44;95489.59;;;9.25;64.11
20860;BME280;10590;48.154;11.514;2023-03-22T01:47:49;95487.81;;;9.12;65.03
20860;BME280;10590;48.154;11.514;2023-03-22T01:52:52;95486.09;;;9.07;64.50
20860;BME280;10590;48.154;11.514;2023-03-22T01:57:57;95484.63;;;8.92;64.87
20860;BME280;10590;48.154;11.514;2023-03-22T02:03:00;95485.56;;;8.97;65.11
20860;BME280;10590;48.154;11.514;2023-03-22T02:08:02;95478.53;;;8.92;65.30
20860;BME280;10590;48.154;11.514;2023-03-22T02:13:18;95470.94;;;8.77;65.48
20860;BME280;10590;48.154;11.514;2023-03-22T02:18:35;95480.19;;;8.79;65.85
20860;BME280;10590;48.154;11.514;2023-03-22T02:24:09;95477.50;;;8.71;65.96
20860;BME280;10590;48.154;11.514;2023-03-22T02:29:15;95470.34;;;8.80;65.61
20860;BME280;10590;48.154;11.514;2023-03-22T02:34:54;95460.28;;;8.68;66.35
20860;BME280;10590;48.154;11.514;2023-03-22T02:40:11;95463.13;;;8.49;66.92
20860;BME280;10590;48.154;11.514;2023-03-22T02:45:19;95471.50;;;8.34;67.53
20860;BME280;10590;48.154;11.514;2023-03-22T02:50:30;95463.59;;;8.29;67.79
20860;BME280;10590;48.154;11.514;2023-03-22T02:55:37;95458.91;;;8.26;67.53
20860;BME280;10590;48.154;11.514;2023-03-22T03:00:42;95482.16;;;8.43;67.12
20860;BME280;10590;48.154;11.514;2023-03-22T03:05:48;95482.88;;;7.54;70.75
20860;BME280;10590;48.154;11.514;2023-03-22T03:10:53;95486.50;;;7.94;69.50
20860;BME280;10590;48.154;11.514;2023-03-22T03:15:56;95492.31;;;7.96;69.01
20860;BME280;10590;48.154;11.514;2023-03-22T03:21:03;95491.81;;;7.94;69.42
20860;BME280;10590;48.154;11.514;2023-03-22T03:26:13;95485.50;;;7.67;70.30
20860;BME280;10590;48.154;11.514;2023-03-22T03:31:28;95490.41;;;7.11;72.85
20860;BME280;10590;48.154;11.514;2023-03-22T03:36:34;95492.56;;;7.22;72.22
20860;BME280;10590;48.154;11.514;2023-03-22T03:41:41;95490.69;;;7.23;72.37
20860;BME280;10590;48.154;11.514;2023-03-22T03:46:45;95485.50;;;7.18;72.65
20860;BME280;10590;48.154;11.514;2023-03-22T03:51:48;95485.00;;;7.16;72.10
20860;BME280;10590;48.154;11.514;2023-03-22T03:56:51;95478.78;;;6.93;73.32
20860;BME280;10590;48.154;11.514;2023-03-22T04:01:53;95481.22;;;6.62;74.09
20860;BME280;10590;48.154;11.514;2023-03-22T04:06:56;95469.66;;;6.85;73.58
20860;BME280;10590;48.154;11.514;2023-03-22T04:11:59;95470.72;;;6.84;73.45
20860;BME280;10590;48.154;11.514;2023-03-22T04:17:01;95472.22;;;6.77;73.70
20860;BME280;10590;48.154;11.514;2023-03-22T04:22:02;95479.56;;;6.80;73.60
20860;BME280;10590;48.154;11.514;2023-03-22T04:27:05;95478.38;;;6.72;73.94
20860;BME280;10590;48.154;11.514;2023-03-22T04:32:07;95485.75;;;6.75;74.32
20860;BME280;10590;48.154;11.514;2023-03-22T04:37:09;95470.97;;;7.01;74.04
20860;BME280;10590;48.154;11.514;2023-03-22T04:42:12;95475.47;;;7.15;73.20
20860;BME280;10590;48.154;11.514;2023-03-22T04:47:14;95462.78;;;7.12;73.07
20860;BME280;10590;48.154;11.514;2023-03-22T04:52:15;95470.06;;;7.20;73.06
20860;BME280;10590;48.154;11.514;2023-03-22T04:57:18;95474.56;;;7.19;72.93
20860;BME280;10590;48.154;11.514;2023-03-22T05:02:20;95469.34;;;7.28;72.47
20860;BME280;10590;48.154;11.514;2023-03-22T05:07:21;95468.75;;;7.31;72.28
20860;BME280;10590;48.154;11.514;2023-03-22T05:12:24;95473.09;;;7.27;72.09
20860;BME280;10590;48.154;11.514;2023-03-22T05:17:26;95470.34;;;7.18;72.14
20860;BME280;10590;48.154;11.514;2023-03-22T05:22:28;95480.06;;;7.23;72.65
20860;BME280;10590;48.154;11.514;2023-03-22T05:27:31;95476.25;;;7.15;72.67
20860;BME280;10590;48.154;11.514;2023-03-22T05:32:33;95490.09;;;7.26;71.97
20860;BME280;10590;48.154;11.514;2023-03-22T05:37:36;95478.78;;;7.34;71.45
20860;BME280;10590;48.154;11.514;2023-03-22T05:42:39;95475.81;;;7.49;71.15
20860;BME280;10590;48.154;11.514;2023-03-22T05:47:41;95480.41;;;7.57;70.92
20860;BME280;10590;48.154;11.514;2023-03-22T05:52:43;95474.88;;;7.67;70.39
20860;BME280;10590;48.154;11.514;2023-03-22T05:57:46;95465.75;;;7.96;69.27
20860;BME280;10590;48.154;11.514;2023-03-22T06:02:50;95457.75;;;8.18;68.36
20860;BME280;10590;48.154;11.514;2023-03-22T06:07:55;95476.78;;;9.44;64.74
20860;BME280;10590;48.154;11.514;2023-03-22T06:12:58;95472.28;;;10.23;61.64
20860;BME280;10590;48.154;11.514;2023-03-22T06:18:00;95479.38;;;11.21;57.06
20860;BME280;10590;48.154;11.514;2023-03-22T06:23:01;95483.25;;;10.12;60.82
20860;BME280;10590;48.154;11.514;2023-03-22T06:28:04;95479.09;;;11.13;58.32
20860;BME280;10590;48.154;11.514;2023-03-22T06:33:06;95472.53;;;12.77;52.01
20860;BME280;10590;48.154;11.514;2023-03-22T06:38:08;95474.34;;;13.71;49.92
20860;BME280;10590;48.154;11.514;2023-03-22T06:43:11;95471.50;;;14.32;48.03
20860;BME280;10590;48.154;11.514;2023-03-22T06:48:13;95480.44;;;13.31;48.38
20860;BME280;10590;48.154;11.514;2023-03-22T06:53:15;95481.41;;;14.16;47.66
20860;BME280;10590;48.154;11.514;2023-03-22T06:58:17;95468.81;;;14.88;45.23
20860;BME280;10590;48.154;11.514;2023-03-22T07:03:19;95482.38;;;16.09;42.80
20860;BME280;10590;48.154;11.514;2023-03-22T07:08:21;95486.47;;;16.80;40.66
20860;BME280;10590;48.154;11.514;2023-03-22T07:13:24;95486.84;;;14.31;45.56
20860;BME280;10590;48.154;11.514;2023-03-22T07:18:26;95488.19;;;14.25;45.87
20860;BME280;10590;48.154;11.514;2023-03-22T07:23:27;95495.41;;;14.93;44.07
20860;BME280;10590;48.154;11.514;2023-03-22T07:28:31;95499.16;;;16.21;42.55
20860;BME280;10590;48.154;11.514;2023-03-22T07:33:32;95497.47;;;15.47;42.70
20860;BME280;10590;48.154;11.514;2023-03-22T07:38:34;95494.47;;;16.38;41.79
20860;BME280;10590;48.154;11.514;2023-03-22T07:43:37;95492.88;;;16.72;40.17
20860;BME280;10590;48.154;11.514;2023-03-22T07:48:40;95495.13;;;17.35;39.96
20860;BME280;10590;48.154;11.514;2023-03-22T07:53:42;95492.59;;;16.58;40.35
20860;BME280;10590;48.154;11.514;2023-03-22T07:58:44;95494.66;;;17.06;39.55
20860;BME280;10590;48.154;11.514;2023-03-22T08:03:46;95495.41;;;17.75;38.53
20860;BME280;10590;48.154;11.514;2023-03-22T08:08:48;95497.09;;;17.87;38.18
20860;BME280;10590;48.154;11.514;2023-03-22T08:13:50;95495.38;;;18.02;38.00
20860;BME280;10590;48.154;11.514;2023-03-22T08:18:53;95499.25;;;19.38;35.89
20860;BME280;10590;48.154;11.514;2023-03-22T08:23:55;95495.16;;;20.17;35.04
20860;BME280;10590;48.154;11.514;2023-03-22T08:28:58;95487.94;;;20.43;33.36
20860;BME280;10590;48.154;11.514;2023-03-22T08:34:00;95492.28;;;19.37;35.52
20860;BME280;10590;48.154;11.514;2023-03-22T08:39:01;95475.25;;;20.68;33.78
20860;BME280;10590;48.154;11.514;2023-03-22T08:44:05;95469.81;;;20.68;33.12
20860;BME280;10590;48.154;11.514;2023-03-22T08:49:07;95483.50;;;21.11;33.05
20860;BME280;10590;48.154;11.514;2023-03-22T08:54:09;95468.09;;;20.21;34.41
20860;BME280;10590;48.154;11.514;2023-03-22T08:59:12;95473.41;;;20.97;33.31
20860;BME280;10590;48.154;11.514;2023-03-22T09:04:14;95478.44;;;21.06;32.25
20860;BME280;10590;48.154;11.514;2023-03-22T09:09:16;95476.16;;;21.36;31.15
20860;BME280;10590;48.154;11.514;2023-03-22T09:14:19;95472.84;;;20.45;31.58
20860;BME280;10590;48.154;11.514;2023-03-22T09:19:20;95469.97;;;21.57;30.60
20860;BME280;10590;48.154;11.514;2023-03-22T09:24:22;95452.44;;;20.83;30.40
20860;BME280;10590;48.154;11.514;2023-03-22T09:29:25;95456.63;;;22.30;29.02
20860;BME280;10590;48.154;11.514;2023-03-22T09:34:26;95443.56;;;21.15;30.33
20860;BME280;10590;48.154;11.514;2023-03-22T09:39:28;95442.78;;;21.18;30.19
20860;BME280;10590;48.154;11.514;2023-03-22T09:44:33;95440.59;;;22.53;29.00
20860;BME280;10590;48.154;11.514;2023-03-22T09:49:39;95440.84;;;23.43;26.48
20860;BME280;10590;48.154;11.514;2023-03-22T09:54:44;95442.66;;;22.32;28.68
20860;BME280;10590;48.154;11.514;2023-03-22T09:59:52;95435.06;;;21.27;30.30
20860;BME280;10590;48.154;11.514;2023-03-22T10:05:03;95419.47;;;20.60;31.17
20860;BME280;10590;48.154;11.514;2023-03-22T10:10:12;95422.63;;;21.76;29.21
20860;BME280;10590;48.154;11.514;2023-03-22T10:15:20;95416.03;;;20.98;30.65
20860;BME280;10590;48.154;11.514;2023-03-22T10:20:30;95413.31;;;21.62;29.40
20860;BME280;10590;48.154;11.514;2023-03-22T10:25:38;95402.69;;;22.21;28.58
20860;BME280;10590;48.154;11.514;2023-03-22T10:30:43;95393.41;;;22.12;28.38
20860;BME280;10590;48.154;11.514;2023-03-22T10:35:50;95397.41;;;21.57;29.43
20860;BME280;10590;48.154;11.514;2023-03-22T10:40:54;95389.69;;;23.65;26.53
20860;BME280;10590;48.154;11.514;2023-03-22T10:46:01;95384.88;;;22.86;26.57
20860;BME280;10590;48.154;11.514;2023-03-22T10:51:05;95397.16;;;23.09;26.60
20860;BME280;10590;48.154;11.514;2023-03-22T10:56:11;95388.00;;;22.85;25.73
20860;BME280;10590;48.154;11.514;2023-03-22T11:01:24;95392.38;;;22.68;27.27
20860;BME280;10590;48.154;11.514;2023-03-22T11:06:28;95379.50;;;22.72;26.62
20860;BME280;10590;48.154;11.514;2023-03-22T11:11:46;95374.09;;;23.69;25.49
20860;BME280;10590;48.154;11.514;2023-03-22T11:16:52;95385.13;;;23.55;26.35
20860;BME280;10590;48.154;11.514;2023-03-22T11:21:56;95370.69;;;23.13;26.27
20860;BME280;10590;48.154;11.514;2023-03-22T11:27:03;95371.34;;;23.24;26.32
20860;BME280;10590;48.154;11.514;2023-03-22T11:32:20;95366.44;;;23.08;26.65
20860;BME280;10590;48.154;11.514;2023-03-22T11:37:21;95369.00;;;23.71;25.89
20860;BME280;10590;48.154;11.514;2023-03-22T11:42:23;95353.78;;;24.68;25.12
20860;BME280;10590;48.154;11.514;2023-03-22T11:47:31;95362.47;;;22.65;27.81
20860;BME280;10590;48.154;11.514;2023-03-22T11:52:35;95346.38;;;22.92;26.61
20860;BME280;10590;48.154;11.514;2023-03-22T11:57:37;95343.28;;;23.31;26.90
20860;BME280;10590;48.154;11.514;2023-03-22T12:02:42;95344.66;;;22.49;27.65
20860;BME280;10590;48.154;11.514;2023-03-22T12:07:47;95330.22;;;22.63;27.72
20860;BME280;10590;48.154;11.514;2023-03-22T12:12:53;95308.41;;;23.60;26.23
20860;BME280;10590;48.154;11.514;2023-03-22T12:18:02;95306.97;;;23.07;26.69
20860;BME280;10590;48.154;11.514;2023-03-22T12:23:11;95309.38;;;22.98;26.84
20860;BME280;10590;48.154;11.514;2023-03-22T12:28:17;95306.44;;;22.74;27.59
20860;BME280;10590;48.154;11.514;2023-03-22T12:33:24;95289.06;;;23.47;26.36
20860;BME280;10590;48.154;11.514;2023-03-22T12:38:33;95284.41;;;23.47;25.75
20860;BME280;10590;48.154;11.514;2023-03-22T12:43:45;95271.38;;;22.32;27.80
20860;BME280;10590;48.154;11.514;2023-03-22T12:48:52;95263.84;;;21.91;28.19
20860;BME280;10590;48.154;11.514;2023-03-22T12:53:56;95253.41;;;22.45;27.27
20860;BME280;10590;48.154;11.514;2023-03-22T12:59:02;95258.16;;;21.60;28.40
20860;BME280;10590;48.154;11.514;2023-03-22T13:04:44;95256.78;;;20.42;30.54
20860;BME280;10590;48.154;11.514;2023-03-22T13:09:47;95239.63;;;21.41;28.29
20860;BME280;10590;48.154;11.514;2023-03-22T13:14:55;95245.16;;;20.66;29.87
20860;BME280;10590;48.154;11.514;2023-03-22T13:20:00;95238.81;;;21.44;28.17
20860;BME280;10590;48.154;11.514;2023-03-22T13:25:13;95235.63;;;21.71;27.63
20860;BME280;10590;48.154;11.514;2023-03-22T13:30:22;95232.78;;;20.65;28.33
20860;BME280;10590;48.154;11.514;2023-03-22T13:35:27;95229.66;;;20.74;28.96
20860;BME280;10590;48.154;11.514;2023-03-22T13:40:37;95230.06;;;20.55;28.65
20860;BME280;10590;48.154;11.514;2023-03-22T13:46:09;95218.72;;;19.75;29.43
20860;BME280;10590;48.154;11.514;2023-03-22T13:51:15;95213.44;;;20.42;28.75
20860;BME280;10590;48.154;11.514;2023-03-22T13:56:30;95216.44;;;19.84;29.45
20860;BME280;10590;48.154;11.514;2023-03-22T14:01:35;95200.81;;;19.41;30.12
20860;BME280;10590;48.154;11.514;2023-03-22T14:06:46;95201.03;;;20.16;29.97
20860;BME280;10590;48.154;11.514;2023-03-22T14:11:52;95209.53;;;20.04;27.89
20860;BME280;10590;48.154;11.514;2023-03-22T14:17:00;95189.44;;;20.41;27.90
20860;BME280;10590;48.154;11.514;2023-03-22T14:22:12;95181.66;;;20.53;28.24
20860;BME280;10590;48.154;11.514;2023-03-22T14:27:16;95191.34;;;20.54;27.85
20860;BME280;10590;48.154;11.514;2023-03-22T14:32:21;95192.09;;;20.83;27.56
20860;BME280;10590;48.154;11.514;2023-03-22T14:37:29;95177.72;;;21.84;26.78
20860;BME280;10590;48.154;11.514;2023-03-22T14:42:31;95180.09;;;20.81;27.06
20860;BME280;10590;48.154;11.514;2023-03-22T14:47:40;95175.47;;;20.17;28.76
20860;BME280;10590;48.154;11.514;2023-03-22T14:52:46;95165.03;;;20.12;28.57
20860;BME280;10590;48.154;11.514;2023-03-22T14:57:50;95170.00;;;19.75;29.65
20860;BME280;10590;48.154;11.514;2023-03-22T15:02:55;95171.91;;;19.56;29.50
20860;BME280;10590;48.154;11.514;2023-03-22T15:08:06;95152.88;;;19.35;30.83
20860;BME280;10590;48.154;11.514;2023-03-22T15:13:10;95153.72;;;19.53;29.20
20860;BME280;10590;48.154;11.514;2023-03-22T15:18:13;95155.19;;;19.33;28.83
20860;BME280;10590;48.154;11.514;2023-03-22T15:23:19;95153.53;;;19.07;29.83
20860;BME280;10590;48.154;11.514;2023-03-22T15:28:26;95161.59;;;18.96;29.17
20860;BME280;10590;48.154;11.514;2023-03-22T15:33:31;95156.88;;;18.79;29.84
20860;BME280;10590;48.154;11.514;2023-03-22T15:38:39;95156.25;;;18.41;29.86
20860;BME280;10590;48.154;11.514;2023-03-22T15:43:41;95158.19;;;18.41;29.42
20860;BME280;10590;48.154;11.514;2023-03-22T15:48:44;95154.97;;;18.83;29.54
20860;BME280;10590;48.154;11.514;2023-03-22T15:53:48;95164.72;;;18.36;29.84
20860;BME280;10590;48.154;11.514;2023-03-22T15:58:52;95155.63;;;18.11;30.60
20860;BME280;10590;48.154;11.514;2023-03-22T16:03:56;95164.47;;;18.04;29.48
20860;BME280;10590;48.154;11.514;2023-03-22T16:08:59;95162.75;;;18.30;29.14
20860;BME280;10590;48.154;11.514;2023-03-22T16:14:01;95181.31;;;17.91;29.47
20860;BME280;10590;48.154;11.514;2023-03-22T16:19:03;95181.13;;;17.69;30.69
20860;BME280;10590;48.154;11.514;2023-03-22T16:24:07;95182.84;;;17.88;30.09
20860;BME280;10590;48.154;11.514;2023-03-22T16:29:08;95183.19;;;17.83;31.72
20860;BME280;10590;48.154;11.514;2023-03-22T16:34:10;95189.25;;;17.73;31.70
20860;BME280;10590;48.154;11.514;2023-03-22T16:39:13;95178.88;;;17.78;32.45
20860;BME280;10590;48.154;11.514;2023-03-22T16:44:16;95187.94;;;17.60;32.34
20860;BME280;10590;48.154;11.514;2023-03-22T16:49:18;95189.13;;;17.29;32.98
20860;BME280;10590;48.154;11.514;2023-03-22T16:54:20;95201.06;;;17.28;33.45
20860;BME280;10590;48.154;11.514;2023-03-22T16:59:22;95205.66;;;16.94;33.86
20860;BME280;10590;48.154;11.514;2023-03-22T17:04:24;95184.22;;;16.74;34.32
20860;BME280;10590;48.154;11.514;2023-03-22T17:09:27;95208.72;;;16.66;33.95
20860;BME280;10590;48.154;11.514;2023-03-22T17:14:28;95213.75;;;16.44;33.77
20860;BME280;10590;48.154;11.514;2023-03-22T17:19:30;95205.34;;;16.23;33.21
20860;BME280;10590;48.154;11.514;2023-03-22T17:24:37;95205.91;;;16.09;33.70
20860;BME280;10590;48.154;11.514;2023-03-22T17:29:40;95208.38;;;15.95;33.89
20860;BME280;10590;48.154;11.514;2023-03-22T17:34:42;95205.53;;;15.65;34.40
20860;BME280;10590;48.154;11.514;2023-03-22T17:39:46;95205.03;;;15.59;34.37
20860;BME280;10590;48.154;11.514;2023-03-22T17:44:48;95202.97;;;15.34;35.92
20860;BME280;10590;48.154;11.514;2023-03-22T17:49:49;95215.03;;;15.20;35.39
20860;BME280;10590;48.154;11.514;2023-03-22T17:54:52;95213.88;;;15.02;36.44
20860;BME280;10590;48.154;11.514;2023-03-22T17:59:54;95216.28;;;15.07;36.97
20860;BME280;10590;48.154;11.514;2023-03-22T18:04:56;95220.94;;;14.91;37.61
20860;BME280;10590;48.154;11.514;2023-03-22T18:09:59;95227.19;;;14.95;37.48
20860;BME280;10590;48.154;11.514;2023-03-22T18:15:08;95224.81;;;14.74;38.34
20860;BME280;10590;48.154;11.514;2023-03-22T18:20:13;95231.31;;;14.42;38.79
20860;BME280;10590;48.154;11.514;2023-03-22T18:25:16;95228.50;;;14.03;40.41
20860;BME280;10590;48.154;11.514;2023-03-22T18:30:22;95237.44;;;13.79;42.04
20860;BME280;10590;48.154;11.514;2023-03-22T18:35:25;95236.41;;;13.68;42.74
20860;BME280;10590;48.154;11.514;2023-03-22T18:40:27;95243.59;;;13.36;42.60
20860;BME280;10590;48.154;11.514;2023-03-22T18:45:29;95228.72;;;12.98;43.00
20860;BME280;10590;48.154;11.514;2023-03-22T18:50:30;95240.88;;;12.96;43.46
20860;BME280;10590;48.154;11.514;2023-03-22T18:55:33;95235.09;;;12.94;43.64
20860;BME280;10590;48.154;11.514;2023-03-22T19:00:35;95217.22;;;12.98;43.67
20860;BME280;10590;48.154;11.514;2023-03-22T19:05:36;95236.53;;;13.03;44.04
20860;BME280;10590;48.154;11.514;2023-03-22T19:10:39;95237.81;;;12.82;45.31
20860;BME280;10590;48.154;11.514;2023-03-22T19:15:42;95240.94;;;12.71;45.14
20860;BME280;10590;48.154;11.514;2023-03-22T19:20:44;95240.59;;;12.73;44.76
20860;BME280;10590;48.154;11.514;2023-03-22T19:25:47;95238.13;;;12.80;44.79
20860;BME280;10590;48.154;11.514;2023-03-22T19:30:51;95243.50;;;12.80;45.21
20860;BME280;10590;48.154;11.514;2023-03-22T19:35:52;95248.53;;;12.57;46.09
20860;BME280;10590;48.154;11.514;2023-03-22T19:40:59;95247.00;;;12.56;45.79
20860;BME280;10590;48.154;11.514;2023-03-22T19:46:07;95248.78;;;12.52;45.62
20860;BME280;10590;48.154;11.514;2023-03-22T19:51:08;95245.88;;;12.45;46.18
20860;BME280;10590;48.154;11.514;2023-03-22T19:56:18;95243.09;;;12.17;46.74
20860;BME280;10590;48.154;11.514;2023-03-22T20:01:20;95245.34;;;12.27;46.79
20860;BME280;10590;48.154;11.514;2023-03-22T20:06:23;95240.50;;;12.08;47.49
20860;BME280;10590;48.154;11.514;2023-03-22T20:11:26;95257.00;;;11.98;47.75
20860;BME280;10590;48.154;11.514;2023-03-22T20:16:28;95253.31;;;12.03;47.79
20860;BME280;10590;48.154;11.514;2023-03-22T20:21:30;95252.28;;;11.83;48.42
20860;BME280;10590;48.154;11.514;2023-03-22T20:26:33;95249.16;;;11.81;48.08
20860;BME280;10590;48.154;11.514;2023-03-22T20:31:35;95250.00;;;11.73;48.01
20860;BME280;10590;48.154;11.514;2023-03-22T20:36:37;95257.06;;;11.77;48.38
20860;BME280;10590;48.154;11.514;2023-03-22T20:41:40;95257.19;;;11.81;47.70
20860;BME280;10590;48.154;11.514;2023-03-22T20:46:41;95254.19;;;11.83;47.49
20860;BME280;10590;48.154;11.514;2023-03-22T20:51:43;95255.34;;;11.73;48.57
20860;BME280;10590;48.154;11.514;2023-03-22T20:56:46;95245.00;;;11.71;48.18
20860;BME280;10590;48.154;11.514;2023-03-22T21:01:47;95253.06;;;11.51;48.16
20860;BME280;10590;48.154;11.514;2023-03-22T21:06:49;95245.88;;;11.30;48.66
20860;BME280;10590;48.154;11.514;2023-03-22T21:11:52;95235.38;;;11.25;48.76
20860;BME280;10590;48.154;11.514;2023-03-22T21:16:54;95251.72;;;11.24;48.86
20860;BME280;10590;48.154;11.514;2023-03-22T21:21:55;95247.69;;;11.17;49.10
20860;BME280;10590;48.154;11.514;2023-03-22T21:26:58;95254.59;;;11.18;49.24
20860;BME280;10590;48.154;11.514;2023-03-22T21:32:00;95255.56;;;11.14;49.40
20860;BME280;10590;48.154;11.514;2023-03-22T21:37:02;95260.47;;;11.12;49.50
20860;BME280;10590;48.154;11.514;2023-03-22T21:42:05;95256.03;;;11.16;49.13
20860;BME280;10590;48.154;11.514;2023-03-22T21:47:06;95254.53;;;11.06;49.24
20860;BME280;10590;48.154;11.514;2023-03-22T21:52:08;95253.09;;;11.09;49.33
20860;BME280;10590;48.154;11.514;2023-03-22T21:57:12;95245.22;;;11.12;48.86
20860;BME280;10590;48.154;11.514;2023-03-22T22:02:16;95240.75;;;11.04;49.95
20860;BME280;10590;48.154;11.514;2023-03-22T22:07:23;95245.34;;;11.16;49.55
20860;BME280;10590;48.154;11.514;2023-03-22T22:12:26;95234.22;;;11.14;49.74
20860;BME280;10590;48.154;11.514;2023-03-22T22:17:27;95240.88;;;11.08;50.68
20860;BME280;10590;48.154;11.514;2023-03-22T22:22:29;95236.44;;;11.12;50.26
20860;BME280;10590;48.154;11.514;2023-03-22T22:27:32;95215.66;;;10.97;50.63
20860;BME280;10590;48.154;11.514;2023-03-22T22:32:34;95234.53;;;11.12;50.86
20860;BME280;10590;48.154;11.514;2023-03-22T22:37:37;95235.53;;;11.08;50.87
20860;BME280;10590;48.154;11.514;2023-03-22T22:42:40;95227.47;;;10.96;50.87
20860;BME280;10590;48.154;11.514;2023-03-22T22:47:42;95236.50;;;11.03;50.33
20860;BME280;10590;48.154;11.514;2023-03-22T22:52:43;95236.84;;;11.02;50.61
20860;BME280;10590;48.154;11.514;2023-03-22T22:57:46;95234.50;;;11.00;50.96
20860;BME280;10590;48.154;11.514;2023-03-22T23:03:07;95230.47;;;10.94;50.96
20860;BME280;10590;48.154;11.514;2023-03-22T23:08:08;95233.19;;;10.85;51.82
20860;BME280;10590;48.154;11.514;2023-03-22T23:13:13;95229.41;;;10.87;52.52
20860;BME280;10590;48.154;11.514;2023-03-22T23:18:14;95219.25;;;10.80;52.52
20860;BME280;10590;48.154;11.514;2023-03-22T23:23:21;95219.97;;;10.68;52.99
20860;BME280;10590;48.154;11.514;2023-03-22T23:28:25;95217.25;;;10.56;53.46
20860;BME280;10590;48.154;11.514;2023-03-22T23:33:33;95235.41;;;10.63;53.36
20860;BME280;10590;48.154;11.514;2023-03-22T23:38:36;95228.09;;;10.51;53.72
20860;BME280;10590;48.154;11.514;2023-03-22T23:43:39;95228.09;;;10.51;53.89
20860;BME280;10590;48.154;11.514;2023-03-22T23:48:41;95229.06;;;10.46;54.14
20860;BME280;10590;48.154;11.514;2023-03-22T23:53:43;95223.28;;;10.44;54.27
20860;BME280;10590;48.154;11.514;2023-03-22T23:58:48;95231.69;;;10.55;54.07
